sensor_id;sensor_type;location;lat;lon;timestamp;P1;durP1;ratioP1;P2;durP2;ratioP2
76262;SDS011;65080;50.908;6.916;2023-08-21T00:01:34;12.33;;;6.00;;
76262;SDS011;65080;50.908;6.916;2023-08-21T00:04:03;8.47;;;6.13;;
76262;SDS011;65080;50.908;6.916;2023-08-21T00:06:31;8.27;;;6.57;;
76262;SDS011;65080;50.908;6.916;2023-08-21T00:09:00;10.37;;;6.33;;
76262;SDS011;65080;50.908;6.916;2023-08-21T00:11:28;11.30;;;6.17;;
76262;SDS011;65080;50.908;6.916;2023-08-21T00:13:56;6.40;;;5.80;;
76262;SDS011;65080;50.908;6.916;2023-08-21T00:16:26;8.60;;;6.60;;
76262;SDS011;65080;50.908;6.916;2023-08-21T00:18:55;8.07;;;7.03;;
76262;SDS011;65080;50.908;6.916;2023-08-21T00:21:23;9.53;;;6.80;;
76262;SDS011;65080;50.908;6.916;2023-08-21T00:23:51;7.23;;;6.20;;
76262;SDS011;65080;50.908;6.916;2023-08-21T00:26:20;9.90;;;6.30;;
76262;SDS011;65080;50.908;6.916;2023-08-21T00:28:48;26.17;;;15.47;;
76262;SDS011;65080;50.908;6.916;2023-08-21T00:31:16;11.40;;;8.13;;
76262;SDS011;65080;50.908;6.916;2023-08-21T00:33:46;11.20;;;7.13;;
76262;SDS011;65080;50.908;6.916;2023-08-21T00:36:14;9.63;;;7.10;;
76262;SDS011;65080;50.908;6.916;2023-08-21T00:38:42;10.30;;;6.60;;
76262;SDS011;65080;50.908;6.916;2023-08-21T00:41:10;8.17;;;6.40;;
76262;SDS011;65080;50.908;6.916;2023-08-21T00:43:39;12.47;;;7.37;;
76262;SDS011;65080;50.908;6.916;2023-08-21T00:46:07;13.00;;;7.10;;
76262;SDS011;65080;50.908;6.916;2023-08-21T00:48:35;9.37;;;6.60;;
76262;SDS011;65080;50.908;6.916;2023-08-21T00:51:05;8.53;;;6.77;;
76262;SDS011;65080;50.908;6.916;2023-08-21T00:53:34;10.77;;;7.70;;
76262;SDS011;65080;50.908;6.916;2023-08-21T00:56:02;8.17;;;7.30;;
76262;SDS011;65080;50.908;6.916;2023-08-21T00:58:31;11.60;;;7.27;;
76262;SDS011;65080;50.908;6.916;2023-08-21T01:00:59;9.47;;;7.10;;
76262;SDS011;65080;50.908;6.916;2023-08-21T01:03:29;8.97;;;7.60;;
76262;SDS011;65080;50.908;6.916;2023-08-21T01:05:57;7.70;;;6.13;;
76262;SDS011;65080;50.908;6.916;2023-08-21T01:08:28;10.77;;;6.80;;
76262;SDS011;65080;50.908;6.916;2023-08-21T01:11:02;12.03;;;6.77;;
76262;SDS011;65080;50.908;6.916;2023-08-21T01:13:40;11.60;;;6.77;;
76262;SDS011;65080;50.908;6.916;2023-08-21T01:16:20;7.73;;;6.37;;
76262;SDS011;65080;50.908;6.916;2023-08-21T01:18:49;11.33;;;6.57;;
76262;SDS011;65080;50.908;6.916;2023-08-21T01:21:17;7.20;;;6.33;;
76262;SDS011;65080;50.908;6.916;2023-08-21T01:23:47;7.37;;;6.63;;
76262;SDS011;65080;50.908;6.916;2023-08-21T01:26:16;8.63;;;5.97;;
76262;SDS011;65080;50.908;6.916;2023-08-21T01:28:44;10.73;;;6.10;;
76262;SDS011;65080;50.908;6.916;2023-08-21T01:31:14;6.87;;;6.17;;
76262;SDS011;65080;50.908;6.916;2023-08-21T01:33:47;8.63;;;6.63;;
76262;SDS011;65080;50.908;6.916;2023-08-21T01:36:18;11.43;;;6.90;;
76262;SDS011;65080;50.908;6.916;2023-08-21T01:38:49;12.10;;;7.23;;
76262;SDS011;65080;50.908;6.916;2023-08-21T01:41:18;8.87;;;6.70;;
76262;SDS011;65080;50.908;6.916;2023-08-21T01:43:46;9.17;;;6.40;;
76262;SDS011;65080;50.908;6.916;2023-08-21T01:46:14;10.50;;;7.00;;
76262;SDS011;65080;50.908;6.916;2023-08-21T01:48:42;8.57;;;6.60;;
76262;SDS011;65080;50.908;6.916;2023-08-21T01:51:11;8.00;;;5.80;;
76262;SDS011;65080;50.908;6.916;2023-08-21T01:53:39;6.80;;;6.10;;
76262;SDS011;65080;50.908;6.916;2023-08-21T01:56:09;10.33;;;6.77;;
76262;SDS011;65080;50.908;6.916;2023-08-21T01:58:37;9.20;;;6.20;;
76262;SDS011;65080;50.908;6.916;2023-08-21T02:01:05;6.90;;;5.50;;
76262;SDS011;65080;50.908;6.916;2023-08-21T02:03:33;9.60;;;6.17;;
76262;SDS011;65080;50.908;6.916;2023-08-21T02:06:02;7.43;;;5.87;;
76262;SDS011;65080;50.908;6.916;2023-08-21T02:08:31;6.67;;;5.63;;
76262;SDS011;65080;50.908;6.916;2023-08-21T02:11:00;10.27;;;5.83;;
76262;SDS011;65080;50.908;6.916;2023-08-21T02:13:30;9.83;;;5.50;;
76262;SDS011;65080;50.908;6.916;2023-08-21T02:15:59;10.50;;;6.27;;
76262;SDS011;65080;50.908;6.916;2023-08-21T02:18:28;5.87;;;4.93;;
76262;SDS011;65080;50.908;6.916;2023-08-21T02:20:56;9.70;;;5.43;;
76262;SDS011;65080;50.908;6.916;2023-08-21T02:23:25;8.70;;;5.50;;
76262;SDS011;65080;50.908;6.916;2023-08-21T02:25:53;12.27;;;5.97;;
76262;SDS011;65080;50.908;6.916;2023-08-21T02:28:21;9.20;;;5.80;;
76262;SDS011;65080;50.908;6.916;2023-08-21T02:30:51;8.13;;;5.30;;
76262;SDS011;65080;50.908;6.916;2023-08-21T02:33:19;5.40;;;4.60;;
76262;SDS011;65080;50.908;6.916;2023-08-21T02:35:48;6.70;;;4.73;;
76262;SDS011;65080;50.908;6.916;2023-08-21T02:38:16;10.47;;;5.70;;
76262;SDS011;65080;50.908;6.916;2023-08-21T02:40:44;10.23;;;5.47;;
76262;SDS011;65080;50.908;6.916;2023-08-21T02:43:14;11.93;;;4.97;;
76262;SDS011;65080;50.908;6.916;2023-08-21T02:45:42;8.47;;;5.30;;
76262;SDS011;65080;50.908;6.916;2023-08-21T02:48:12;7.97;;;5.10;;
76262;SDS011;65080;50.908;6.916;2023-08-21T02:50:40;7.70;;;5.00;;
76262;SDS011;65080;50.908;6.916;2023-08-21T02:53:09;11.17;;;4.90;;
76262;SDS011;65080;50.908;6.916;2023-08-21T02:55:37;6.80;;;4.80;;
76262;SDS011;65080;50.908;6.916;2023-08-21T02:58:05;7.30;;;4.97;;
76262;SDS011;65080;50.908;6.916;2023-08-21T03:00:33;8.20;;;5.67;;
76262;SDS011;65080;50.908;6.916;2023-08-21T03:03:02;7.87;;;4.67;;
76262;SDS011;65080;50.908;6.916;2023-08-21T03:05:32;8.40;;;5.17;;
76262;SDS011;65080;50.908;6.916;2023-08-21T03:08:00;6.33;;;4.27;;
76262;SDS011;65080;50.908;6.916;2023-08-21T03:10:29;7.50;;;4.20;;
76262;SDS011;65080;50.908;6.916;2023-08-21T03:13:00;9.17;;;4.93;;
76262;SDS011;65080;50.908;6.916;2023-08-21T03:15:28;6.83;;;4.57;;
76262;SDS011;65080;50.908;6.916;2023-08-21T03:17:57;5.23;;;3.93;;
76262;SDS011;65080;50.908;6.916;2023-08-21T03:20:26;8.93;;;4.47;;
76262;SDS011;65080;50.908;6.916;2023-08-21T03:22:56;8.20;;;4.80;;
76262;SDS011;65080;50.908;6.916;2023-08-21T03:25:24;6.93;;;3.90;;
76262;SDS011;65080;50.908;6.916;2023-08-21T03:27:52;7.67;;;4.50;;
76262;SDS011;65080;50.908;6.916;2023-08-21T03:30:20;5.40;;;3.80;;
76262;SDS011;65080;50.908;6.916;2023-08-21T03:32:49;6.83;;;4.70;;
76262;SDS011;65080;50.908;6.916;2023-08-21T03:35:17;9.27;;;4.57;;
76262;SDS011;65080;50.908;6.916;2023-08-21T03:37:45;7.60;;;4.37;;
76262;SDS011;65080;50.908;6.916;2023-08-21T03:40:15;7.43;;;5.23;;
76262;SDS011;65080;50.908;6.916;2023-08-21T03:42:43;8.93;;;4.53;;
76262;SDS011;65080;50.908;6.916;2023-08-21T03:45:11;9.87;;;5.23;;
76262;SDS011;65080;50.908;6.916;2023-08-21T03:47:40;7.40;;;3.53;;
76262;SDS011;65080;50.908;6.916;2023-08-21T03:50:08;5.93;;;4.27;;
76262;SDS011;65080;50.908;6.916;2023-08-21T03:52:37;10.00;;;4.57;;
76262;SDS011;65080;50.908;6.916;2023-08-21T03:55:06;12.80;;;4.40;;
76262;SDS011;65080;50.908;6.916;2023-08-21T03:57:36;9.70;;;3.93;;
76262;SDS011;65080;50.908;6.916;2023-08-21T04:00:04;6.77;;;3.77;;
76262;SDS011;65080;50.908;6.916;2023-08-21T04:02:34;7.70;;;3.90;;
76262;SDS011;65080;50.908;6.916;2023-08-21T04:05:03;9.60;;;4.57;;
76262;SDS011;65080;50.908;6.916;2023-08-21T04:07:32;5.27;;;3.47;;
76262;SDS011;65080;50.908;6.916;2023-08-21T04:10:00;6.00;;;3.50;;
76262;SDS011;65080;50.908;6.916;2023-08-21T04:12:28;13.07;;;4.50;;
76262;SDS011;65080;50.908;6.916;2023-08-21T04:14:58;11.53;;;3.90;;
76262;SDS011;65080;50.908;6.916;2023-08-21T04:17:26;8.43;;;3.70;;
76262;SDS011;65080;50.908;6.916;2023-08-21T04:19:54;10.97;;;4.17;;
76262;SDS011;65080;50.908;6.916;2023-08-21T04:22:22;5.03;;;3.33;;
76262;SDS011;65080;50.908;6.916;2023-08-21T04:24:51;9.00;;;3.77;;
76262;SDS011;65080;50.908;6.916;2023-08-21T04:27:19;6.13;;;3.80;;
76262;SDS011;65080;50.908;6.916;2023-08-21T04:29:47;4.97;;;3.80;;
76262;SDS011;65080;50.908;6.916;2023-08-21T04:32:17;7.67;;;4.30;;
76262;SDS011;65080;50.908;6.916;2023-08-21T04:34:45;5.90;;;4.27;;
76262;SDS011;65080;50.908;6.916;2023-08-21T04:37:13;12.00;;;4.20;;
76262;SDS011;65080;50.908;6.916;2023-08-21T04:39:41;9.67;;;4.37;;
76262;SDS011;65080;50.908;6.916;2023-08-21T04:42:10;5.37;;;3.70;;
76262;SDS011;65080;50.908;6.916;2023-08-21T04:44:38;7.37;;;3.97;;
76262;SDS011;65080;50.908;6.916;2023-08-21T04:49:54;11.53;;;3.90;;
76262;SDS011;65080;50.908;6.916;2023-08-21T04:52:23;10.03;;;3.83;;
76262;SDS011;65080;50.908;6.916;2023-08-21T04:54:52;9.60;;;3.90;;
76262;SDS011;65080;50.908;6.916;2023-08-21T04:57:21;6.17;;;3.93;;
76262;SDS011;65080;50.908;6.916;2023-08-21T04:59:49;9.70;;;3.77;;
76262;SDS011;65080;50.908;6.916;2023-08-21T05:02:17;11.40;;;5.23;;
76262;SDS011;65080;50.908;6.916;2023-08-21T05:04:47;8.57;;;4.00;;
76262;SDS011;65080;50.908;6.916;2023-08-21T05:07:15;6.87;;;4.00;;
76262;SDS011;65080;50.908;6.916;2023-08-21T05:09:44;7.60;;;4.40;;
76262;SDS011;65080;50.908;6.916;2023-08-21T05:12:12;9.00;;;4.23;;
76262;SDS011;65080;50.908;6.916;2023-08-21T05:14:40;11.00;;;3.90;;
76262;SDS011;65080;50.908;6.916;2023-08-21T05:17:09;5.70;;;3.73;;
76262;SDS011;65080;50.908;6.916;2023-08-21T05:19:37;7.67;;;4.40;;
76262;SDS011;65080;50.908;6.916;2023-08-21T05:22:07;5.43;;;4.00;;
76262;SDS011;65080;50.908;6.916;2023-08-21T05:24:35;5.60;;;3.73;;
76262;SDS011;65080;50.908;6.916;2023-08-21T05:27:04;6.80;;;4.10;;
76262;SDS011;65080;50.908;6.916;2023-08-21T05:29:32;8.60;;;3.70;;
76262;SDS011;65080;50.908;6.916;2023-08-21T05:32:03;6.07;;;4.27;;
76262;SDS011;65080;50.908;6.916;2023-08-21T05:34:32;6.07;;;3.43;;
76262;SDS011;65080;50.908;6.916;2023-08-21T05:37:00;6.67;;;3.63;;
76262;SDS011;65080;50.908;6.916;2023-08-21T05:39:32;6.50;;;4.03;;
76262;SDS011;65080;50.908;6.916;2023-08-21T05:42:00;6.50;;;3.40;;
76262;SDS011;65080;50.908;6.916;2023-08-21T05:44:28;10.17;;;4.20;;
76262;SDS011;65080;50.908;6.916;2023-08-21T05:46:57;9.50;;;3.50;;
76262;SDS011;65080;50.908;6.916;2023-08-21T05:49:25;9.67;;;4.40;;
76262;SDS011;65080;50.908;6.916;2023-08-21T05:51:53;9.47;;;4.40;;
76262;SDS011;65080;50.908;6.916;2023-08-21T05:54:24;9.40;;;4.43;;
76262;SDS011;65080;50.908;6.916;2023-08-21T05:56:53;12.70;;;4.97;;
76262;SDS011;65080;50.908;6.916;2023-08-21T05:59:29;14.23;;;4.60;;
76262;SDS011;65080;50.908;6.916;2023-08-21T06:01:59;7.03;;;4.30;;
76262;SDS011;65080;50.908;6.916;2023-08-21T06:04:28;10.83;;;3.70;;
76262;SDS011;65080;50.908;6.916;2023-08-21T06:06:56;8.73;;;4.17;;
76262;SDS011;65080;50.908;6.916;2023-08-21T06:09:25;6.13;;;4.07;;
76262;SDS011;65080;50.908;6.916;2023-08-21T06:11:57;6.67;;;3.97;;
76262;SDS011;65080;50.908;6.916;2023-08-21T06:14:25;5.20;;;2.93;;
76262;SDS011;65080;50.908;6.916;2023-08-21T06:16:55;6.07;;;3.43;;
76262;SDS011;65080;50.908;6.916;2023-08-21T06:19:26;7.40;;;4.33;;
76262;SDS011;65080;50.908;6.916;2023-08-21T06:21:54;6.50;;;4.70;;
76262;SDS011;65080;50.908;6.916;2023-08-21T06:24:23;9.73;;;4.03;;
76262;SDS011;65080;50.908;6.916;2023-08-21T06:26:51;6.03;;;4.33;;
76262;SDS011;65080;50.908;6.916;2023-08-21T06:29:21;7.00;;;4.07;;
76262;SDS011;65080;50.908;6.916;2023-08-21T06:31:49;9.40;;;5.07;;
76262;SDS011;65080;50.908;6.916;2023-08-21T06:34:18;8.03;;;5.10;;
76262;SDS011;65080;50.908;6.916;2023-08-21T06:36:46;10.80;;;5.53;;
76262;SDS011;65080;50.908;6.916;2023-08-21T06:39:14;6.30;;;4.40;;
76262;SDS011;65080;50.908;6.916;2023-08-21T06:41:42;12.97;;;6.00;;
76262;SDS011;65080;50.908;6.916;2023-08-21T06:44:10;9.43;;;5.70;;
76262;SDS011;65080;50.908;6.916;2023-08-21T06:46:40;8.83;;;6.13;;
76262;SDS011;65080;50.908;6.916;2023-08-21T06:49:09;8.63;;;5.40;;
76262;SDS011;65080;50.908;6.916;2023-08-21T06:51:37;10.87;;;5.87;;
76262;SDS011;65080;50.908;6.916;2023-08-21T06:54:06;11.40;;;6.33;;
76262;SDS011;65080;50.908;6.916;2023-08-21T06:56:34;13.53;;;6.83;;
76262;SDS011;65080;50.908;6.916;2023-08-21T06:59:02;7.33;;;6.63;;
76262;SDS011;65080;50.908;6.916;2023-08-21T07:01:31;17.53;;;7.43;;
76262;SDS011;65080;50.908;6.916;2023-08-21T07:04:00;13.30;;;7.67;;
76262;SDS011;65080;50.908;6.916;2023-08-21T07:06:29;12.37;;;8.63;;
76262;SDS011;65080;50.908;6.916;2023-08-21T07:08:58;11.00;;;8.73;;
76262;SDS011;65080;50.908;6.916;2023-08-21T07:11:27;18.20;;;9.00;;
76262;SDS011;65080;50.908;6.916;2023-08-21T07:13:55;11.67;;;8.33;;
76262;SDS011;65080;50.908;6.916;2023-08-21T07:16:24;8.70;;;7.10;;
76262;SDS011;65080;50.908;6.916;2023-08-21T07:18:53;13.20;;;8.83;;
76262;SDS011;65080;50.908;6.916;2023-08-21T07:21:23;10.13;;;8.40;;
76262;SDS011;65080;50.908;6.916;2023-08-21T07:23:59;11.50;;;8.67;;
76262;SDS011;65080;50.908;6.916;2023-08-21T07:26:27;10.90;;;7.70;;
76262;SDS011;65080;50.908;6.916;2023-08-21T07:28:56;12.07;;;9.27;;
76262;SDS011;65080;50.908;6.916;2023-08-21T07:31:24;12.33;;;9.10;;
76262;SDS011;65080;50.908;6.916;2023-08-21T07:33:53;15.90;;;9.60;;
76262;SDS011;65080;50.908;6.916;2023-08-21T07:36:23;11.60;;;9.33;;
76262;SDS011;65080;50.908;6.916;2023-08-21T07:38:51;10.43;;;8.70;;
76262;SDS011;65080;50.908;6.916;2023-08-21T07:41:19;12.03;;;7.80;;
76262;SDS011;65080;50.908;6.916;2023-08-21T07:43:50;11.43;;;8.80;;
76262;SDS011;65080;50.908;6.916;2023-08-21T07:46:18;10.50;;;8.30;;
76262;SDS011;65080;50.908;6.916;2023-08-21T07:48:46;9.80;;;8.27;;
76262;SDS011;65080;50.908;6.916;2023-08-21T07:51:15;14.40;;;10.23;;
76262;SDS011;65080;50.908;6.916;2023-08-21T07:53:44;10.67;;;7.93;;
76262;SDS011;65080;50.908;6.916;2023-08-21T07:56:13;11.20;;;7.63;;
76262;SDS011;65080;50.908;6.916;2023-08-21T07:58:41;9.80;;;7.60;;
76262;SDS011;65080;50.908;6.916;2023-08-21T08:01:10;10.60;;;7.80;;
76262;SDS011;65080;50.908;6.916;2023-08-21T08:03:39;11.40;;;7.87;;
76262;SDS011;65080;50.908;6.916;2023-08-21T08:06:07;7.30;;;6.57;;
76262;SDS011;65080;50.908;6.916;2023-08-21T08:08:35;8.73;;;6.83;;
76262;SDS011;65080;50.908;6.916;2023-08-21T08:11:05;12.60;;;7.13;;
76262;SDS011;65080;50.908;6.916;2023-08-21T08:13:33;16.47;;;8.47;;
76262;SDS011;65080;50.908;6.916;2023-08-21T08:16:01;13.67;;;6.77;;
76262;SDS011;65080;50.908;6.916;2023-08-21T08:18:30;18.73;;;7.30;;
76262;SDS011;65080;50.908;6.916;2023-08-21T08:20:58;16.20;;;7.50;;
76262;SDS011;65080;50.908;6.916;2023-08-21T08:23:26;12.90;;;7.07;;
76262;SDS011;65080;50.908;6.916;2023-08-21T08:25:54;8.40;;;7.20;;
76262;SDS011;65080;50.908;6.916;2023-08-21T08:28:25;10.70;;;7.03;;
76262;SDS011;65080;50.908;6.916;2023-08-21T08:30:53;10.80;;;7.50;;
76262;SDS011;65080;50.908;6.916;2023-08-21T08:33:21;12.03;;;7.83;;
76262;SDS011;65080;50.908;6.916;2023-08-21T08:35:50;14.30;;;7.10;;
76262;SDS011;65080;50.908;6.916;2023-08-21T08:38:18;12.70;;;7.10;;
76262;SDS011;65080;50.908;6.916;2023-08-21T08:40:47;11.57;;;7.77;;
76262;SDS011;65080;50.908;6.916;2023-08-21T08:43:17;8.67;;;6.70;;
76262;SDS011;65080;50.908;6.916;2023-08-21T08:45:47;11.93;;;7.10;;
76262;SDS011;65080;50.908;6.916;2023-08-21T08:48:16;8.10;;;5.80;;
76262;SDS011;65080;50.908;6.916;2023-08-21T08:50:47;13.90;;;7.00;;
76262;SDS011;65080;50.908;6.916;2023-08-21T08:53:17;9.53;;;6.93;;
76262;SDS011;65080;50.908;6.916;2023-08-21T08:55:46;15.30;;;7.80;;
76262;SDS011;65080;50.908;6.916;2023-08-21T08:58:16;11.97;;;7.70;;
76262;SDS011;65080;50.908;6.916;2023-08-21T09:00:44;11.70;;;7.40;;
76262;SDS011;65080;50.908;6.916;2023-08-21T09:03:13;10.20;;;7.37;;
76262;SDS011;65080;50.908;6.916;2023-08-21T09:05:42;12.80;;;8.03;;
76262;SDS011;65080;50.908;6.916;2023-08-21T09:08:11;12.57;;;7.80;;
76262;SDS011;65080;50.908;6.916;2023-08-21T09:10:40;11.33;;;8.73;;
76262;SDS011;65080;50.908;6.916;2023-08-21T09:13:13;10.43;;;8.50;;
76262;SDS011;65080;50.908;6.916;2023-08-21T09:15:46;10.67;;;7.30;;
76262;SDS011;65080;50.908;6.916;2023-08-21T09:18:16;11.10;;;8.10;;
76262;SDS011;65080;50.908;6.916;2023-08-21T09:20:44;14.13;;;7.80;;
76262;SDS011;65080;50.908;6.916;2023-08-21T09:23:13;14.03;;;7.63;;
76262;SDS011;65080;50.908;6.916;2023-08-21T09:25:43;12.80;;;8.57;;
76262;SDS011;65080;50.908;6.916;2023-08-21T09:28:13;11.80;;;7.03;;
76262;SDS011;65080;50.908;6.916;2023-08-21T09:30:46;15.53;;;6.40;;
76262;SDS011;65080;50.908;6.916;2023-08-21T09:33:18;10.07;;;5.70;;
76262;SDS011;65080;50.908;6.916;2023-08-21T09:35:47;8.33;;;6.10;;
76262;SDS011;65080;50.908;6.916;2023-08-21T09:38:16;10.90;;;6.10;;
76262;SDS011;65080;50.908;6.916;2023-08-21T09:40:49;9.17;;;6.23;;
76262;SDS011;65080;50.908;6.916;2023-08-21T09:43:19;10.43;;;6.70;;
76262;SDS011;65080;50.908;6.916;2023-08-21T09:45:48;11.80;;;6.20;;
76262;SDS011;65080;50.908;6.916;2023-08-21T09:48:20;12.57;;;7.77;;
76262;SDS011;65080;50.908;6.916;2023-08-21T09:50:50;10.73;;;6.50;;
76262;SDS011;65080;50.908;6.916;2023-08-21T09:53:19;12.93;;;7.80;;
76262;SDS011;65080;50.908;6.916;2023-08-21T09:55:49;16.80;;;8.10;;
76262;SDS011;65080;50.908;6.916;2023-08-21T09:58:21;13.33;;;8.43;;
76262;SDS011;65080;50.908;6.916;2023-08-21T10:00:50;13.87;;;7.63;;
76262;SDS011;65080;50.908;6.916;2023-08-21T10:03:25;11.00;;;7.53;;
76262;SDS011;65080;50.908;6.916;2023-08-21T10:05:55;11.67;;;8.20;;
76262;SDS011;65080;50.908;6.916;2023-08-21T10:08:25;13.30;;;8.30;;
76262;SDS011;65080;50.908;6.916;2023-08-21T10:10:55;9.53;;;7.80;;
76262;SDS011;65080;50.908;6.916;2023-08-21T10:13:25;14.10;;;7.17;;
76262;SDS011;65080;50.908;6.916;2023-08-21T10:15:54;14.40;;;6.87;;
76262;SDS011;65080;50.908;6.916;2023-08-21T10:18:23;19.07;;;6.37;;
76262;SDS011;65080;50.908;6.916;2023-08-21T10:20:56;10.90;;;7.13;;
76262;SDS011;65080;50.908;6.916;2023-08-21T10:23:39;13.77;;;7.53;;
76262;SDS011;65080;50.908;6.916;2023-08-21T10:26:11;17.70;;;8.90;;
76262;SDS011;65080;50.908;6.916;2023-08-21T10:28:50;12.53;;;7.90;;
76262;SDS011;65080;50.908;6.916;2023-08-21T10:31:26;13.00;;;7.00;;
76262;SDS011;65080;50.908;6.916;2023-08-21T10:33:57;8.60;;;6.97;;
76262;SDS011;65080;50.908;6.916;2023-08-21T10:39:36;14.67;;;7.17;;
76262;SDS011;65080;50.908;6.916;2023-08-21T10:42:07;16.60;;;8.57;;
76262;SDS011;65080;50.908;6.916;2023-08-21T10:44:47;15.10;;;10.07;;
76262;SDS011;65080;50.908;6.916;2023-08-21T10:47:20;17.63;;;9.67;;
76262;SDS011;65080;50.908;6.916;2023-08-21T10:49:52;13.30;;;9.13;;
76262;SDS011;65080;50.908;6.916;2023-08-21T10:52:22;11.60;;;9.00;;
76262;SDS011;65080;50.908;6.916;2023-08-21T10:54:52;15.20;;;10.20;;
76262;SDS011;65080;50.908;6.916;2023-08-21T10:57:21;10.23;;;8.83;;
76262;SDS011;65080;50.908;6.916;2023-08-21T10:59:51;12.07;;;9.00;;
76262;SDS011;65080;50.908;6.916;2023-08-21T11:02:21;15.63;;;9.30;;
76262;SDS011;65080;50.908;6.916;2023-08-21T11:04:50;13.30;;;8.53;;
76262;SDS011;65080;50.908;6.916;2023-08-21T11:07:20;17.00;;;10.80;;
76262;SDS011;65080;50.908;6.916;2023-08-21T11:09:49;18.40;;;10.70;;
76262;SDS011;65080;50.908;6.916;2023-08-21T11:12:17;12.60;;;8.93;;
76262;SDS011;65080;50.908;6.916;2023-08-21T11:14:48;18.93;;;11.50;;
76262;SDS011;65080;50.908;6.916;2023-08-21T11:17:16;23.97;;;10.90;;
76262;SDS011;65080;50.908;6.916;2023-08-21T11:19:45;12.83;;;9.40;;
76262;SDS011;65080;50.908;6.916;2023-08-21T11:22:16;15.20;;;9.60;;
76262;SDS011;65080;50.908;6.916;2023-08-21T11:24:45;15.97;;;10.33;;
76262;SDS011;65080;50.908;6.916;2023-08-21T11:27:15;13.60;;;9.20;;
76262;SDS011;65080;50.908;6.916;2023-08-21T11:29:44;14.50;;;8.67;;
76262;SDS011;65080;50.908;6.916;2023-08-21T11:32:14;12.50;;;7.73;;
76262;SDS011;65080;50.908;6.916;2023-08-21T11:34:47;14.20;;;9.33;;
76262;SDS011;65080;50.908;6.916;2023-08-21T11:37:17;13.50;;;10.47;;
76262;SDS011;65080;50.908;6.916;2023-08-21T11:39:47;12.33;;;8.30;;
76262;SDS011;65080;50.908;6.916;2023-08-21T11:42:16;13.47;;;9.20;;
76262;SDS011;65080;50.908;6.916;2023-08-21T11:44:46;13.90;;;8.77;;
76262;SDS011;65080;50.908;6.916;2023-08-21T11:47:17;18.20;;;9.90;;
76262;SDS011;65080;50.908;6.916;2023-08-21T11:49:50;12.70;;;8.70;;
76262;SDS011;65080;50.908;6.916;2023-08-21T11:52:21;15.27;;;11.67;;
76262;SDS011;65080;50.908;6.916;2023-08-21T11:54:52;16.17;;;9.43;;
76262;SDS011;65080;50.908;6.916;2023-08-21T11:57:21;14.57;;;9.67;;
76262;SDS011;65080;50.908;6.916;2023-08-21T11:59:50;21.03;;;10.03;;
76262;SDS011;65080;50.908;6.916;2023-08-21T12:02:21;16.07;;;9.23;;
76262;SDS011;65080;50.908;6.916;2023-08-21T12:04:53;15.00;;;9.03;;
76262;SDS011;65080;50.908;6.916;2023-08-21T12:07:23;15.80;;;13.07;;
76262;SDS011;65080;50.908;6.916;2023-08-21T12:09:52;15.00;;;10.67;;
76262;SDS011;65080;50.908;6.916;2023-08-21T12:12:20;17.33;;;10.27;;
76262;SDS011;65080;50.908;6.916;2023-08-21T12:14:48;13.03;;;9.90;;
76262;SDS011;65080;50.908;6.916;2023-08-21T12:17:16;13.33;;;8.37;;
76262;SDS011;65080;50.908;6.916;2023-08-21T12:19:45;9.43;;;7.50;;
76262;SDS011;65080;50.908;6.916;2023-08-21T12:22:13;9.70;;;7.20;;
76262;SDS011;65080;50.908;6.916;2023-08-21T12:24:42;11.73;;;6.40;;
76262;SDS011;65080;50.908;6.916;2023-08-21T12:27:11;9.20;;;5.87;;
76262;SDS011;65080;50.908;6.916;2023-08-21T12:29:39;12.60;;;6.97;;
76262;SDS011;65080;50.908;6.916;2023-08-21T12:32:08;10.37;;;6.67;;
76262;SDS011;65080;50.908;6.916;2023-08-21T12:34:36;13.33;;;6.70;;
76262;SDS011;65080;50.908;6.916;2023-08-21T12:37:04;7.97;;;5.53;;
76262;SDS011;65080;50.908;6.916;2023-08-21T12:39:32;9.13;;;6.27;;
76262;SDS011;65080;50.908;6.916;2023-08-21T12:42:02;8.50;;;5.63;;
76262;SDS011;65080;50.908;6.916;2023-08-21T12:44:31;8.83;;;4.80;;
76262;SDS011;65080;50.908;6.916;2023-08-21T12:47:04;8.57;;;4.90;;
76262;SDS011;65080;50.908;6.916;2023-08-21T12:49:32;12.43;;;6.47;;
76262;SDS011;65080;50.908;6.916;2023-08-21T12:52:02;9.70;;;4.53;;
76262;SDS011;65080;50.908;6.916;2023-08-21T12:54:33;10.10;;;4.37;;
76262;SDS011;65080;50.908;6.916;2023-08-21T12:57:03;7.90;;;3.83;;
76262;SDS011;65080;50.908;6.916;2023-08-21T12:59:32;7.30;;;4.23;;
76262;SDS011;65080;50.908;6.916;2023-08-21T13:02:00;9.63;;;4.50;;
76262;SDS011;65080;50.908;6.916;2023-08-21T13:04:29;9.53;;;5.03;;
76262;SDS011;65080;50.908;6.916;2023-08-21T13:06:58;13.50;;;4.03;;
76262;SDS011;65080;50.908;6.916;2023-08-21T13:09:27;9.83;;;3.80;;
76262;SDS011;65080;50.908;6.916;2023-08-21T13:11:55;6.77;;;3.70;;
76262;SDS011;65080;50.908;6.916;2023-08-21T13:14:25;5.23;;;3.83;;
76262;SDS011;65080;50.908;6.916;2023-08-21T13:16:58;6.30;;;3.13;;
76262;SDS011;65080;50.908;6.916;2023-08-21T13:19:26;5.70;;;3.10;;
76262;SDS011;65080;50.908;6.916;2023-08-21T13:21:54;8.17;;;3.00;;
76262;SDS011;65080;50.908;6.916;2023-08-21T13:24:22;10.50;;;3.07;;
76262;SDS011;65080;50.908;6.916;2023-08-21T13:26:52;5.27;;;2.70;;
76262;SDS011;65080;50.908;6.916;2023-08-21T13:29:20;8.20;;;3.80;;
76262;SDS011;65080;50.908;6.916;2023-08-21T13:31:50;3.97;;;3.13;;
76262;SDS011;65080;50.908;6.916;2023-08-21T13:34:18;4.40;;;2.47;;
76262;SDS011;65080;50.908;6.916;2023-08-21T13:36:46;5.97;;;3.40;;
76262;SDS011;65080;50.908;6.916;2023-08-21T13:39:14;6.07;;;3.03;;
76262;SDS011;65080;50.908;6.916;2023-08-21T13:41:43;7.93;;;2.70;;
76262;SDS011;65080;50.908;6.916;2023-08-21T13:44:11;5.33;;;2.33;;
76262;SDS011;65080;50.908;6.916;2023-08-21T13:46:40;6.50;;;2.97;;
76262;SDS011;65080;50.908;6.916;2023-08-21T13:49:09;6.83;;;3.17;;
76262;SDS011;65080;50.908;6.916;2023-08-21T13:51:37;5.40;;;2.50;;
76262;SDS011;65080;50.908;6.916;2023-08-21T13:54:09;5.03;;;2.40;;
76262;SDS011;65080;50.908;6.916;2023-08-21T13:56:43;6.23;;;2.87;;
76262;SDS011;65080;50.908;6.916;2023-08-21T13:59:12;5.00;;;2.60;;
76262;SDS011;65080;50.908;6.916;2023-08-21T14:01:40;5.40;;;2.73;;
76262;SDS011;65080;50.908;6.916;2023-08-21T14:04:09;3.90;;;2.60;;
76262;SDS011;65080;50.908;6.916;2023-08-21T14:06:38;4.97;;;2.33;;
76262;SDS011;65080;50.908;6.916;2023-08-21T14:09:06;6.13;;;3.10;;
76262;SDS011;65080;50.908;6.916;2023-08-21T14:11:34;5.03;;;2.43;;
76262;SDS011;65080;50.908;6.916;2023-08-21T14:14:03;3.87;;;2.67;;
76262;SDS011;65080;50.908;6.916;2023-08-21T14:16:31;7.37;;;3.07;;
76262;SDS011;65080;50.908;6.916;2023-08-21T14:18:59;16.03;;;4.77;;
76262;SDS011;65080;50.908;6.916;2023-08-21T14:21:29;14.73;;;2.90;;
76262;SDS011;65080;50.908;6.916;2023-08-21T14:23:57;8.27;;;2.60;;
76262;SDS011;65080;50.908;6.916;2023-08-21T14:26:26;4.80;;;2.60;;
76262;SDS011;65080;50.908;6.916;2023-08-21T14:28:54;6.03;;;2.67;;
76262;SDS011;65080;50.908;6.916;2023-08-21T14:31:22;4.40;;;2.23;;
76262;SDS011;65080;50.908;6.916;2023-08-21T14:33:51;4.80;;;2.47;;
76262;SDS011;65080;50.908;6.916;2023-08-21T14:36:19;6.43;;;2.60;;
76262;SDS011;65080;50.908;6.916;2023-08-21T14:38:48;5.60;;;2.77;;
76262;SDS011;65080;50.908;6.916;2023-08-21T14:41:17;6.20;;;2.30;;
76262;SDS011;65080;50.908;6.916;2023-08-21T14:43:45;3.93;;;1.90;;
76262;SDS011;65080;50.908;6.916;2023-08-21T14:46:14;4.60;;;2.20;;
76262;SDS011;65080;50.908;6.916;2023-08-21T14:49:00;6.23;;;2.30;;
76262;SDS011;65080;50.908;6.916;2023-08-21T14:51:28;6.13;;;2.83;;
76262;SDS011;65080;50.908;6.916;2023-08-21T14:53:58;7.00;;;2.80;;
76262;SDS011;65080;50.908;6.916;2023-08-21T14:56:26;6.90;;;2.90;;
76262;SDS011;65080;50.908;6.916;2023-08-21T14:58:54;6.07;;;2.10;;